sensor_id;sensor_type;location;lat;lon;timestamp;temperature;humidity
9913;DHT22;41380;52.548;13.344;2022-08-19T00:01:20;20.90;99.90
9913;DHT22;41380;52.548;13.344;2022-08-19T00:03:47;20.90;99.90
9913;DHT22;41380;52.548;13.344;2022-08-19T00:06:15;20.90;99.90
9913;DHT22;41380;52.548;13.344;2022-08-19T00:08:42;21.00;99.90
9913;DHT22;41380;52.548;13.344;2022-08-19T00:11:09;21.00;99.90
9913;DHT22;41380;52.548;13.344;2022-08-19T00:13:36;21.00;99.90
9913;DHT22;41380;52.548;13.344;2022-08-19T00:16:05;21.00;99.90
9913;DHT22;41380;52.548;13.344;2022-08-19T00:18:33;21.00;99.90
9913;DHT22;41380;52.548;13.344;2022-08-19T00:21:00;21.00;99.90
9913;DHT22;41380;52.548;13.344;2022-08-19T00:23:27;21.10;99.90
9913;DHT22;41380;52.548;13.344;2022-08-19T00:25:54;21.10;99.90
9913;DHT22;41380;52.548;13.344;2022-08-19T00:28:21;21.10;99.90
9913;DHT22;41380;52.548;13.344;2022-08-19T00:30:48;21.10;99.90
9913;DHT22;41380;52.548;13.344;2022-08-19T00:33:18;21.10;99.90
9913;DHT22;41380;52.548;13.344;2022-08-19T00:35:45;21.20;99.90
9913;DHT22;41380;52.548;13.344;2022-08-19T00:38:12;21.20;99.90
9913;DHT22;41380;52.548;13.344;2022-08-19T00:40:42;21.30;99.90
9913;DHT22;41380;52.548;13.344;2022-08-19T00:43:13;21.30;99.90
9913;DHT22;41380;52.548;13.344;2022-08-19T00:45:44;21.30;99.90
9913;DHT22;41380;52.548;13.344;2022-08-19T00:48:13;21.20;99.90
9913;DHT22;41380;52.548;13.344;2022-08-19T00:50:42;21.20;99.90
9913;DHT22;41380;52.548;13.344;2022-08-19T00:53:10;21.10;99.90
9913;DHT22;41380;52.548;13.344;2022-08-19T00:55:37;21.10;99.90
9913;DHT22;41380;52.548;13.344;2022-08-19T00:58:09;21.10;99.90
9913;DHT22;41380;52.548;13.344;2022-08-19T01:00:37;21.20;99.90
9913;DHT22;41380;52.548;13.344;2022-08-19T01:03:05;21.20;99.90
9913;DHT22;41380;52.548;13.344;2022-08-19T01:05:33;21.00;99.90
9913;DHT22;41380;52.548;13.344;2022-08-19T01:08:04;20.90;99.90
9913;DHT22;41380;52.548;13.344;2022-08-19T01:10:36;20.90;99.90
9913;DHT22;41380;52.548;13.344;2022-08-19T01:13:05;20.80;99.90
9913;DHT22;41380;52.548;13.344;2022-08-19T01:15:33;20.60;99.90
9913;DHT22;41380;52.548;13.344;2022-08-19T01:18:06;20.60;99.90
9913;DHT22;41380;52.548;13.344;2022-08-19T01:20:34;20.50;99.90
9913;DHT22;41380;52.548;13.344;2022-08-19T01:23:03;20.50;99.90
9913;DHT22;41380;52.548;13.344;2022-08-19T01:25:33;20.50;99.90
9913;DHT22;41380;52.548;13.344;2022-08-19T01:28:02;20.50;99.90
9913;DHT22;41380;52.548;13.344;2022-08-19T01:30:32;20.50;99.90
9913;DHT22;41380;52.548;13.344;2022-08-19T01:33:00;20.50;99.90
9913;DHT22;41380;52.548;13.344;2022-08-19T01:35:29;20.50;99.90
9913;DHT22;41380;52.548;13.344;2022-08-19T01:37:58;20.60;99.90
9913;DHT22;41380;52.548;13.344;2022-08-19T01:40:31;20.60;99.90
9913;DHT22;41380;52.548;13.344;2022-08-19T01:42:59;20.60;99.90
9913;DHT22;41380;52.548;13.344;2022-08-19T01:45:28;20.60;99.90
9913;DHT22;41380;52.548;13.344;2022-08-19T01:47:55;20.50;99.90
9913;DHT22;41380;52.548;13.344;2022-08-19T01:50:23;20.50;99.90
9913;DHT22;41380;52.548;13.344;2022-08-19T01:52:50;20.50;99.90
9913;DHT22;41380;52.548;13.344;2022-08-19T01:55:20;20.40;99.90
9913;DHT22;41380;52.548;13.344;2022-08-19T01:57:53;20.40;99.90
9913;DHT22;41380;52.548;13.344;2022-08-19T02:00:23;20.50;99.90
9913;DHT22;41380;52.548;13.344;2022-08-19T02:02:50;20.50;99.90
9913;DHT22;41380;52.548;13.344;2022-08-19T02:05:17;20.40;99.90
9913;DHT22;41380;52.548;13.344;2022-08-19T02:07:47;20.40;99.90
9913;DHT22;41380;52.548;13.344;2022-08-19T02:10:17;20.40;99.90
9913;DHT22;41380;52.548;13.344;2022-08-19T02:12:45;20.40;99.90
9913;DHT22;41380;52.548;13.344;2022-08-19T02:15:13;20.50;99.90
9913;DHT22;41380;52.548;13.344;2022-08-19T02:17:41;20.50;99.90
9913;DHT22;41380;52.548;13.344;2022-08-19T02:20:09;20.50;99.90
9913;DHT22;41380;52.548;13.344;2022-08-19T02:22:39;20.40;99.90
9913;DHT22;41380;52.548;13.344;2022-08-19T02:25:08;20.30;99.90
9913;DHT22;41380;52.548;13.344;2022-08-19T02:27:35;20.20;99.90
9913;DHT22;41380;52.548;13.344;2022-08-19T02:30:05;20.10;99.90
9913;DHT22;41380;52.548;13.344;2022-08-19T02:32:34;20.10;99.90
9913;DHT22;41380;52.548;13.344;2022-08-19T02:35:01;20.00;99.90
9913;DHT22;41380;52.548;13.344;2022-08-19T02:37:28;19.90;99.90
9913;DHT22;41380;52.548;13.344;2022-08-19T02:40:13;19.90;99.90
9913;DHT22;41380;52.548;13.344;2022-08-19T02:42:40;19.80;99.90
9913;DHT22;41380;52.548;13.344;2022-08-19T02:45:09;19.80;99.90
9913;DHT22;41380;52.548;13.344;2022-08-19T02:47:37;19.80;99.90
9913;DHT22;41380;52.548;13.344;2022-08-19T02:50:05;19.80;99.90
9913;DHT22;41380;52.548;13.344;2022-08-19T02:52:33;19.80;99.90
9913;DHT22;41380;52.548;13.344;2022-08-19T02:55:00;19.90;99.90
9913;DHT22;41380;52.548;13.344;2022-08-19T02:57:30;19.90;99.90
9913;DHT22;41380;52.548;13.344;2022-08-19T02:59:58;19.80;99.90
9913;DHT22;41380;52.548;13.344;2022-08-19T03:02:25;19.80;99.90
9913;DHT22;41380;52.548;13.344;2022-08-19T03:04:54;19.80;99.90
9913;DHT22;41380;52.548;13.344;2022-08-19T03:07:20;19.80;99.90
9913;DHT22;41380;52.548;13.344;2022-08-19T03:09:47;19.80;99.90
9913;DHT22;41380;52.548;13.344;2022-08-19T03:12:15;19.80;99.90
9913;DHT22;41380;52.548;13.344;2022-08-19T03:14:42;19.80;99.90
9913;DHT22;41380;52.548;13.344;2022-08-19T03:17:09;19.80;99.90
9913;DHT22;41380;52.548;13.344;2022-08-19T03:19:36;19.90;99.90
9913;DHT22;41380;52.548;13.344;2022-08-19T03:22:05;19.90;99.90
9913;DHT22;41380;52.548;13.344;2022-08-19T03:24:31;19.90;99.90
9913;DHT22;41380;52.548;13.344;2022-08-19T03:26:58;19.90;99.90
9913;DHT22;41380;52.548;13.344;2022-08-19T03:29:27;19.90;99.90
9913;DHT22;41380;52.548;13.344;2022-08-19T03:31:54;19.80;99.90
9913;DHT22;41380;52.548;13.344;2022-08-19T03:34:23;19.80;99.90
9913;DHT22;41380;52.548;13.344;2022-08-19T03:36:51;19.70;99.90
9913;DHT22;41380;52.548;13.344;2022-08-19T03:39:21;19.70;99.90
9913;DHT22;41380;52.548;13.344;2022-08-19T03:41:49;19.70;99.90
9913;DHT22;41380;52.548;13.344;2022-08-19T03:44:18;19.70;99.90
9913;DHT22;41380;52.548;13.344;2022-08-19T03:46:47;19.80;99.90
9913;DHT22;41380;52.548;13.344;2022-08-19T03:49:14;19.80;99.90
9913;DHT22;41380;52.548;13.344;2022-08-19T03:51:42;19.80;99.90
9913;DHT22;41380;52.548;13.344;2022-08-19T03:54:11;19.70;99.90
9913;DHT22;41380;52.548;13.344;2022-08-19T03:56:42;19.70;99.90
9913;DHT22;41380;52.548;13.344;2022-08-19T03:59:11;19.80;99.90
9913;DHT22;41380;52.548;13.344;2022-08-19T04:01:39;19.70;99.90
9913;DHT22;41380;52.548;13.344;2022-08-19T04:04:06;19.80;99.90
9913;DHT22;41380;52.548;13.344;2022-08-19T04:06:35;19.80;99.90
9913;DHT22;41380;52.548;13.344;2022-08-19T04:09:07;19.80;99.90
9913;DHT22;41380;52.548;13.344;2022-08-19T04:11:37;19.90;99.90
9913;DHT22;41380;52.548;13.344;2022-08-19T04:14:10;19.80;99.90
9913;DHT22;41380;52.548;13.344;2022-08-19T04:16:37;19.90;99.90
9913;DHT22;41380;52.548;13.344;2022-08-19T04:19:05;19.90;99.90
9913;DHT22;41380;52.548;13.344;2022-08-19T04:21:33;19.90;99.90
9913;DHT22;41380;52.548;13.344;2022-08-19T04:24:01;19.90;99.90
9913;DHT22;41380;52.548;13.344;2022-08-19T04:26:31;20.00;99.90
9913;DHT22;41380;52.548;13.344;2022-08-19T04:28:58;20.00;99.90
9913;DHT22;41380;52.548;13.344;2022-08-19T04:31:29;20.00;99.90
9913;DHT22;41380;52.548;13.344;2022-08-19T04:33:57;20.00;99.90
9913;DHT22;41380;52.548;13.344;2022-08-19T04:36:26;20.00;99.90
9913;DHT22;41380;52.548;13.344;2022-08-19T04:38:55;20.00;99.90
9913;DHT22;41380;52.548;13.344;2022-08-19T04:41:22;20.00;99.90
9913;DHT22;41380;52.548;13.344;2022-08-19T04:44:10;20.00;99.90
9913;DHT22;41380;52.548;13.344;2022-08-19T04:46:39;20.00;99.90
9913;DHT22;41380;52.548;13.344;2022-08-19T04:49:07;20.10;99.90
9913;DHT22;41380;52.548;13.344;2022-08-19T04:51:34;20.00;99.90
9913;DHT22;41380;52.548;13.344;2022-08-19T04:54:03;20.10;99.90
9913;DHT22;41380;52.548;13.344;2022-08-19T04:56:30;20.10;99.90
9913;DHT22;41380;52.548;13.344;2022-08-19T04:58:57;20.10;99.90
9913;DHT22;41380;52.548;13.344;2022-08-19T05:01:29;20.10;99.90
9913;DHT22;41380;52.548;13.344;2022-08-19T05:04:00;20.20;99.90
9913;DHT22;41380;52.548;13.344;2022-08-19T05:06:29;20.20;99.90
9913;DHT22;41380;52.548;13.344;2022-08-19T05:08:59;20.20;99.90
9913;DHT22;41380;52.548;13.344;2022-08-19T05:11:27;20.20;99.90
9913;DHT22;41380;52.548;13.344;2022-08-19T05:13:55;20.30;99.90
9913;DHT22;41380;52.548;13.344;2022-08-19T05:16:24;20.40;99.90
9913;DHT22;41380;52.548;13.344;2022-08-19T05:18:51;20.50;99.90
9913;DHT22;41380;52.548;13.344;2022-08-19T05:21:38;20.60;99.90
9913;DHT22;41380;52.548;13.344;2022-08-19T05:24:24;20.60;99.90
9913;DHT22;41380;52.548;13.344;2022-08-19T05:26:53;20.70;99.90
9913;DHT22;41380;52.548;13.344;2022-08-19T05:29:24;20.80;99.90
9913;DHT22;41380;52.548;13.344;2022-08-19T05:31:51;20.90;99.90
9913;DHT22;41380;52.548;13.344;2022-08-19T05:34:20;21.00;99.90
9913;DHT22;41380;52.548;13.344;2022-08-19T05:36:55;21.10;99.90
9913;DHT22;41380;52.548;13.344;2022-08-19T05:39:24;21.20;99.90
9913;DHT22;41380;52.548;13.344;2022-08-19T05:41:54;21.30;99.90
9913;DHT22;41380;52.548;13.344;2022-08-19T05:44:23;21.50;99.90
9913;DHT22;41380;52.548;13.344;2022-08-19T05:46:50;21.50;99.90
9913;DHT22;41380;52.548;13.344;2022-08-19T05:49:20;21.70;99.90
9913;DHT22;41380;52.548;13.344;2022-08-19T05:51:47;21.80;99.90
9913;DHT22;41380;52.548;13.344;2022-08-19T05:54:17;21.90;99.90
9913;DHT22;41380;52.548;13.344;2022-08-19T05:56:44;22.10;99.90
9913;DHT22;41380;52.548;13.344;2022-08-19T05:59:14;22.30;99.90
9913;DHT22;41380;52.548;13.344;2022-08-19T06:01:44;22.50;99.90
9913;DHT22;41380;52.548;13.344;2022-08-19T06:04:13;22.70;99.90
9913;DHT22;41380;52.548;13.344;2022-08-19T06:06:40;22.90;99.90
9913;DHT22;41380;52.548;13.344;2022-08-19T06:09:08;23.20;99.90
9913;DHT22;41380;52.548;13.344;2022-08-19T06:11:38;23.30;99.90
9913;DHT22;41380;52.548;13.344;2022-08-19T06:14:08;23.20;99.90
9913;DHT22;41380;52.548;13.344;2022-08-19T06:16:35;23.20;99.90
9913;DHT22;41380;52.548;13.344;2022-08-19T06:19:05;23.10;99.90
9913;DHT22;41380;52.548;13.344;2022-08-19T06:21:34;23.00;99.90
9913;DHT22;41380;52.548;13.344;2022-08-19T06:24:04;22.90;99.90
9913;DHT22;41380;52.548;13.344;2022-08-19T06:26:33;22.90;99.90
9913;DHT22;41380;52.548;13.344;2022-08-19T06:29:01;23.10;99.90
9913;DHT22;41380;52.548;13.344;2022-08-19T06:31:29;23.20;99.90
9913;DHT22;41380;52.548;13.344;2022-08-19T06:33:59;23.50;99.90
9913;DHT22;41380;52.548;13.344;2022-08-19T06:36:29;23.60;99.90
9913;DHT22;41380;52.548;13.344;2022-08-19T06:39:00;23.80;99.90
9913;DHT22;41380;52.548;13.344;2022-08-19T06:41:29;23.90;99.90
9913;DHT22;41380;52.548;13.344;2022-08-19T06:43:57;24.00;99.90
9913;DHT22;41380;52.548;13.344;2022-08-19T06:46:26;24.10;99.90
9913;DHT22;41380;52.548;13.344;2022-08-19T06:48:53;24.30;99.90
9913;DHT22;41380;52.548;13.344;2022-08-19T06:51:21;24.50;99.90
9913;DHT22;41380;52.548;13.344;2022-08-19T06:53:50;24.40;99.90
9913;DHT22;41380;52.548;13.344;2022-08-19T06:56:19;24.40;99.90
9913;DHT22;41380;52.548;13.344;2022-08-19T06:58:47;24.30;99.90
9913;DHT22;41380;52.548;13.344;2022-08-19T07:01:16;24.30;99.90
9913;DHT22;41380;52.548;13.344;2022-08-19T07:03:44;24.30;99.90
9913;DHT22;41380;52.548;13.344;2022-08-19T07:06:15;24.40;99.90
9913;DHT22;41380;52.548;13.344;2022-08-19T07:08:44;24.20;99.90
9913;DHT22;41380;52.548;13.344;2022-08-19T07:11:14;24.20;99.90
9913;DHT22;41380;52.548;13.344;2022-08-19T07:13:41;24.10;99.90
9913;DHT22;41380;52.548;13.344;2022-08-19T07:16:10;24.00;99.90
9913;DHT22;41380;52.548;13.344;2022-08-19T07:18:38;23.80;99.90
9913;DHT22;41380;52.548;13.344;2022-08-19T07:21:09;23.80;99.90
9913;DHT22;41380;52.548;13.344;2022-08-19T07:23:37;23.80;99.90
9913;DHT22;41380;52.548;13.344;2022-08-19T07:26:05;23.80;99.90
9913;DHT22;41380;52.548;13.344;2022-08-19T07:28:32;24.00;99.90
9913;DHT22;41380;52.548;13.344;2022-08-19T07:31:00;24.10;99.90
9913;DHT22;41380;52.548;13.344;2022-08-19T07:33:29;24.30;99.90
9913;DHT22;41380;52.548;13.344;2022-08-19T07:35:58;24.50;99.90
9913;DHT22;41380;52.548;13.344;2022-08-19T07:38:26;24.60;99.90
9913;DHT22;41380;52.548;13.344;2022-08-19T07:40:53;24.50;99.90
9913;DHT22;41380;52.548;13.344;2022-08-19T07:43:20;24.40;99.90
9913;DHT22;41380;52.548;13.344;2022-08-19T07:45:51;24.40;99.90
9913;DHT22;41380;52.548;13.344;2022-08-19T07:48:19;24.20;99.90
9913;DHT22;41380;52.548;13.344;2022-08-19T07:50:48;24.20;99.90
9913;DHT22;41380;52.548;13.344;2022-08-19T07:53:15;24.20;99.90
9913;DHT22;41380;52.548;13.344;2022-08-19T07:55:44;24.20;99.90
9913;DHT22;41380;52.548;13.344;2022-08-19T07:58:14;24.00;99.90
9913;DHT22;41380;52.548;13.344;2022-08-19T08:00:42;24.00;99.90
9913;DHT22;41380;52.548;13.344;2022-08-19T08:03:13;24.00;99.90
9913;DHT22;41380;52.548;13.344;2022-08-19T08:05:40;24.00;99.90
9913;DHT22;41380;52.548;13.344;2022-08-19T08:08:24;24.10;99.90
9913;DHT22;41380;52.548;13.344;2022-08-19T08:11:10;24.00;99.90
9913;DHT22;41380;52.548;13.344;2022-08-19T08:13:38;24.00;99.90
9913;DHT22;41380;52.548;13.344;2022-08-19T08:16:06;24.10;99.90
9913;DHT22;41380;52.548;13.344;2022-08-19T08:18:34;24.10;99.90
9913;DHT22;41380;52.548;13.344;2022-08-19T08:21:07;24.10;99.90
9913;DHT22;41380;52.548;13.344;2022-08-19T08:23:34;24.10;99.90
9913;DHT22;41380;52.548;13.344;2022-08-19T08:26:01;24.10;99.90
9913;DHT22;41380;52.548;13.344;2022-08-19T08:28:31;24.20;99.90
9913;DHT22;41380;52.548;13.344;2022-08-19T08:30:58;24.30;99.90
9913;DHT22;41380;52.548;13.344;2022-08-19T08:33:27;24.40;99.90
9913;DHT22;41380;52.548;13.344;2022-08-19T08:35:54;24.50;99.90
9913;DHT22;41380;52.548;13.344;2022-08-19T08:38:21;24.70;99.90
9913;DHT22;41380;52.548;13.344;2022-08-19T08:40:49;24.80;99.90
9913;DHT22;41380;52.548;13.344;2022-08-19T08:43:23;24.70;99.90
9913;DHT22;41380;52.548;13.344;2022-08-19T08:46:00;24.90;99.90
9913;DHT22;41380;52.548;13.344;2022-08-19T08:48:36;25.00;99.90
9913;DHT22;41380;52.548;13.344;2022-08-19T08:51:07;25.00;99.90
9913;DHT22;41380;52.548;13.344;2022-08-19T08:53:36;25.00;99.90
9913;DHT22;41380;52.548;13.344;2022-08-19T08:56:06;25.00;99.90
9913;DHT22;41380;52.548;13.344;2022-08-19T08:58:46;24.80;99.90
9913;DHT22;41380;52.548;13.344;2022-08-19T09:01:16;24.60;99.90
9913;DHT22;41380;52.548;13.344;2022-08-19T09:03:43;24.50;99.90
9913;DHT22;41380;52.548;13.344;2022-08-19T09:06:14;24.50;99.90
9913;DHT22;41380;52.548;13.344;2022-08-19T09:08:51;24.60;99.90
9913;DHT22;41380;52.548;13.344;2022-08-19T09:11:24;24.80;99.90
9913;DHT22;41380;52.548;13.344;2022-08-19T09:14:05;24.90;99.90
9913;DHT22;41380;52.548;13.344;2022-08-19T09:16:37;25.00;99.90
9913;DHT22;41380;52.548;13.344;2022-08-19T09:19:07;25.10;99.90
9913;DHT22;41380;52.548;13.344;2022-08-19T09:21:36;25.30;99.90
9913;DHT22;41380;52.548;13.344;2022-08-19T09:24:04;25.50;99.90
9913;DHT22;41380;52.548;13.344;2022-08-19T09:26:32;25.80;99.90
9913;DHT22;41380;52.548;13.344;2022-08-19T09:29:00;26.20;99.90
9913;DHT22;41380;52.548;13.344;2022-08-19T09:31:29;26.60;99.90
9913;DHT22;41380;52.548;13.344;2022-08-19T09:34:01;27.20;99.90
9913;DHT22;41380;52.548;13.344;2022-08-19T09:36:29;27.70;99.90
9913;DHT22;41380;52.548;13.344;2022-08-19T09:38:58;28.20;99.70
9913;DHT22;41380;52.548;13.344;2022-08-19T09:41:26;28.50;98.40
9913;DHT22;41380;52.548;13.344;2022-08-19T09:43:55;28.80;98.50
9913;DHT22;41380;52.548;13.344;2022-08-19T09:46:23;28.80;97.20
9913;DHT22;41380;52.548;13.344;2022-08-19T09:48:51;28.80;97.30
9913;DHT22;41380;52.548;13.344;2022-08-19T09:51:21;28.70;97.00
9913;DHT22;41380;52.548;13.344;2022-08-19T09:53:49;28.70;96.90
9913;DHT22;41380;52.548;13.344;2022-08-19T09:56:18;28.70;96.50
9913;DHT22;41380;52.548;13.344;2022-08-19T09:58:45;28.60;96.60
9913;DHT22;41380;52.548;13.344;2022-08-19T10:01:17;28.70;97.00
9913;DHT22;41380;52.548;13.344;2022-08-19T10:03:48;28.90;96.40
9913;DHT22;41380;52.548;13.344;2022-08-19T10:06:16;29.10;96.30
9913;DHT22;41380;52.548;13.344;2022-08-19T10:08:45;29.20;95.60
9913;DHT22;41380;52.548;13.344;2022-08-19T10:11:13;29.20;95.80
9913;DHT22;41380;52.548;13.344;2022-08-19T10:13:42;29.10;95.50
9913;DHT22;41380;52.548;13.344;2022-08-19T10:16:12;28.90;95.50
9913;DHT22;41380;52.548;13.344;2022-08-19T10:18:40;28.80;95.60
9913;DHT22;41380;52.548;13.344;2022-08-19T10:21:11;28.70;95.60
9913;DHT22;41380;52.548;13.344;2022-08-19T10:23:41;28.60;95.80
9913;DHT22;41380;52.548;13.344;2022-08-19T10:26:13;28.60;95.80
9913;DHT22;41380;52.548;13.344;2022-08-19T10:28:40;28.60;95.50
9913;DHT22;41380;52.548;13.344;2022-08-19T10:31:10;28.80;95.40
9913;DHT22;41380;52.548;13.344;2022-08-19T10:33:39;28.70;95.20
9913;DHT22;41380;52.548;13.344;2022-08-19T10:36:08;28.60;95.10
9913;DHT22;41380;52.548;13.344;2022-08-19T10:38:36;28.30;95.70
9913;DHT22;41380;52.548;13.344;2022-08-19T10:41:07;28.10;96.00
9913;DHT22;41380;52.548;13.344;2022-08-19T10:43:36;27.70;96.70
9913;DHT22;41380;52.548;13.344;2022-08-19T10:46:04;27.60;97.00
9913;DHT22;41380;52.548;13.344;2022-08-19T10:48:32;27.50;97.10
9913;DHT22;41380;52.548;13.344;2022-08-19T10:50:59;27.40;97.30
9913;DHT22;41380;52.548;13.344;2022-08-19T10:53:44;27.30;97.50
9913;DHT22;41380;52.548;13.344;2022-08-19T10:56:11;27.30;97.60
9913;DHT22;41380;52.548;13.344;2022-08-19T10:58:58;27.10;97.60
9913;DHT22;41380;52.548;13.344;2022-08-19T11:01:26;26.90;98.10
9913;DHT22;41380;52.548;13.344;2022-08-19T11:03:55;26.70;98.50
9913;DHT22;41380;52.548;13.344;2022-08-19T11:06:23;26.60;98.70
9913;DHT22;41380;52.548;13.344;2022-08-19T11:08:53;26.50;99.00
9913;DHT22;41380;52.548;13.344;2022-08-19T11:11:21;26.40;99.40
9913;DHT22;41380;52.548;13.344;2022-08-19T11:13:49;26.30;99.70
9913;DHT22;41380;52.548;13.344;2022-08-19T11:16:20;26.20;99.90
9913;DHT22;41380;52.548;13.344;2022-08-19T11:18:50;26.10;99.60
9913;DHT22;41380;52.548;13.344;2022-08-19T11:21:19;26.00;99.90
9913;DHT22;41380;52.548;13.344;2022-08-19T11:23:48;26.10;99.90
9913;DHT22;41380;52.548;13.344;2022-08-19T11:26:17;26.10;99.90
9913;DHT22;41380;52.548;13.344;2022-08-19T11:28:45;26.10;99.70
9913;DHT22;41380;52.548;13.344;2022-08-19T11:31:16;26.00;99.90
9913;DHT22;41380;52.548;13.344;2022-08-19T11:33:45;26.00;99.90
9913;DHT22;41380;52.548;13.344;2022-08-19T11:36:13;26.00;99.90
9913;DHT22;41380;52.548;13.344;2022-08-19T11:38:43;26.00;99.90
9913;DHT22;41380;52.548;13.344;2022-08-19T11:41:10;25.90;99.90
9913;DHT22;41380;52.548;13.344;2022-08-19T11:43:37;25.80;99.90
9913;DHT22;41380;52.548;13.344;2022-08-19T11:46:05;25.70;99.90
9913;DHT22;41380;52.548;13.344;2022-08-19T11:48:34;25.70;99.90
9913;DHT22;41380;52.548;13.344;2022-08-19T11:51:05;25.60;99.90
9913;DHT22;41380;52.548;13.344;2022-08-19T11:53:33;25.60;99.90
9913;DHT22;41380;52.548;13.344;2022-08-19T11:56:03;25.60;99.90
9913;DHT22;41380;52.548;13.344;2022-08-19T11:58:31;25.50;99.90
9913;DHT22;41380;52.548;13.344;2022-08-19T12:00:58;25.60;99.90
9913;DHT22;41380;52.548;13.344;2022-08-19T12:03:26;25.70;99.90
9913;DHT22;41380;52.548;13.344;2022-08-19T12:05:53;25.80;99.90
9913;DHT22;41380;52.548;13.344;2022-08-19T12:08:21;26.00;99.90
9913;DHT22;41380;52.548;13.344;2022-08-19T12:10:48;26.20;99.60
9913;DHT22;41380;52.548;13.344;2022-08-19T12:13:15;26.40;98.90
9913;DHT22;41380;52.548;13.344;2022-08-19T12:15:44;26.60;98.60
9913;DHT22;41380;52.548;13.344;2022-08-19T12:18:12;26.40;98.50
9913;DHT22;41380;52.548;13.344;2022-08-19T12:20:50;26.30;98.60
9913;DHT22;41380;52.548;13.344;2022-08-19T12:23:18;26.00;98.90
9913;DHT22;41380;52.548;13.344;2022-08-19T12:25:47;25.80;99.60
9913;DHT22;41380;52.548;13.344;2022-08-19T12:28:18;25.80;99.70
9913;DHT22;41380;52.548;13.344;2022-08-19T12:30:46;25.90;99.40
9913;DHT22;41380;52.548;13.344;2022-08-19T12:33:13;26.10;99.10
9913;DHT22;41380;52.548;13.344;2022-08-19T12:35:42;26.50;98.10
9913;DHT22;41380;52.548;13.344;2022-08-19T12:38:11;26.80;97.70
9913;DHT22;41380;52.548;13.344;2022-08-19T12:40:39;27.10;96.90
9913;DHT22;41380;52.548;13.344;2022-08-19T12:43:06;27.00;96.70
9913;DHT22;41380;52.548;13.344;2022-08-19T12:45:33;27.10;96.90
9913;DHT22;41380;52.548;13.344;2022-08-19T12:48:00;27.30;96.60
9913;DHT22;41380;52.548;13.344;2022-08-19T12:50:30;27.50;96.30
9913;DHT22;41380;52.548;13.344;2022-08-19T12:52:57;27.40;96.30
9913;DHT22;41380;52.548;13.344;2022-08-19T12:55:25;27.40;96.40
9913;DHT22;41380;52.548;13.344;2022-08-19T12:57:54;27.40;96.40
9913;DHT22;41380;52.548;13.344;2022-08-19T13:00:21;27.50;96.30
9913;DHT22;41380;52.548;13.344;2022-08-19T13:02:50;27.80;96.00
9913;DHT22;41380;52.548;13.344;2022-08-19T13:05:20;28.00;95.60
9913;DHT22;41380;52.548;13.344;2022-08-19T13:07:49;27.90;95.40
9913;DHT22;41380;52.548;13.344;2022-08-19T13:10:19;27.80;95.40
9913;DHT22;41380;52.548;13.344;2022-08-19T13:12:50;27.50;95.60
9913;DHT22;41380;52.548;13.344;2022-08-19T13:15:22;27.50;95.90
9913;DHT22;41380;52.548;13.344;2022-08-19T13:17:50;27.50;96.00
9913;DHT22;41380;52.548;13.344;2022-08-19T13:20:19;27.70;95.70
9913;DHT22;41380;52.548;13.344;2022-08-19T13:22:47;27.80;95.50
9913;DHT22;41380;52.548;13.344;2022-08-19T13:25:15;27.80;95.50
9913;DHT22;41380;52.548;13.344;2022-08-19T13:27:45;27.90;95.10
9913;DHT22;41380;52.548;13.344;2022-08-19T13:30:15;28.00;95.10
9913;DHT22;41380;52.548;13.344;2022-08-19T13:32:56;28.00;95.10
9913;DHT22;41380;52.548;13.344;2022-08-19T13:35:41;28.10;94.90
9913;DHT22;41380;52.548;13.344;2022-08-19T13:38:08;28.30;94.50
9913;DHT22;41380;52.548;13.344;2022-08-19T13:40:36;28.30;94.30
9913;DHT22;41380;52.548;13.344;2022-08-19T13:43:04;28.20;94.60
9913;DHT22;41380;52.548;13.344;2022-08-19T13:45:33;28.30;94.30
9913;DHT22;41380;52.548;13.344;2022-08-19T13:48:03;28.30;94.30
9913;DHT22;41380;52.548;13.344;2022-08-19T13:50:32;28.20;94.40
9913;DHT22;41380;52.548;13.344;2022-08-19T13:53:00;28.10;94.60
9913;DHT22;41380;52.548;13.344;2022-08-19T13:55:28;28.00;94.50
9913;DHT22;41380;52.548;13.344;2022-08-19T13:57:57;27.50;95.00
9913;DHT22;41380;52.548;13.344;2022-08-19T14:00:28;27.40;95.60
9913;DHT22;41380;52.548;13.344;2022-08-19T14:02:57;27.30;95.40
9913;DHT22;41380;52.548;13.344;2022-08-19T14:05:25;27.30;95.40
9913;DHT22;41380;52.548;13.344;2022-08-19T14:07:53;27.30;95.50
9913;DHT22;41380;52.548;13.344;2022-08-19T14:10:21;27.30;95.70
9913;DHT22;41380;52.548;13.344;2022-08-19T14:12:53;27.40;95.50
9913;DHT22;41380;52.548;13.344;2022-08-19T14:15:21;27.30;95.20
9913;DHT22;41380;52.548;13.344;2022-08-19T14:17:48;27.20;95.80
9913;DHT22;41380;52.548;13.344;2022-08-19T14:20:17;27.10;96.00
9913;DHT22;41380;52.548;13.344;2022-08-19T14:22:46;27.10;96.10
9913;DHT22;41380;52.548;13.344;2022-08-19T14:25:17;27.00;96.00
9913;DHT22;41380;52.548;13.344;2022-08-19T14:27:46;26.90;96.30
9913;DHT22;41380;52.548;13.344;2022-08-19T14:30:22;26.90;96.40
9913;DHT22;41380;52.548;13.344;2022-08-19T14:32:50;26.90;96.20
9913;DHT22;41380;52.548;13.344;2022-08-19T14:35:19;26.90;96.10
9913;DHT22;41380;52.548;13.344;2022-08-19T14:37:48;26.70;96.20
9913;DHT22;41380;52.548;13.344;2022-08-19T14:40:19;26.70;96.30
9913;DHT22;41380;52.548;13.344;2022-08-19T14:42:52;26.60;96.50
9913;DHT22;41380;52.548;13.344;2022-08-19T14:45:21;26.60;97.00
9913;DHT22;41380;52.548;13.344;2022-08-19T14:47:50;26.50;96.90
9913;DHT22;41380;52.548;13.344;2022-08-19T14:50:19;26.40;96.80
9913;DHT22;41380;52.548;13.344;2022-08-19T14:52:47;26.20;97.30
9913;DHT22;41380;52.548;13.344;2022-08-19T14:55:17;26.10;97.40
9913;DHT22;41380;52.548;13.344;2022-08-19T14:57:44;26.10;97.50
9913;DHT22;41380;52.548;13.344;2022-08-19T15:00:13;26.00;97.50
9913;DHT22;41380;52.548;13.344;2022-08-19T15:02:40;25.90;97.60
9913;DHT22;41380;52.548;13.344;2022-08-19T15:05:09;25.90;97.60
9913;DHT22;41380;52.548;13.344;2022-08-19T15:07:38;25.90;97.70
9913;DHT22;41380;52.548;13.344;2022-08-19T15:10:08;26.00;97.70
9913;DHT22;41380;52.548;13.344;2022-08-19T15:12:36;26.00;97.60
9913;DHT22;41380;52.548;13.344;2022-08-19T15:15:07;26.00;97.40
9913;DHT22;41380;52.548;13.344;2022-08-19T15:17:34;26.00;97.50
9913;DHT22;41380;52.548;13.344;2022-08-19T15:20:03;25.90;97.40
9913;DHT22;41380;52.548;13.344;2022-08-19T15:22:30;25.80;97.80
9913;DHT22;41380;52.548;13.344;2022-08-19T15:24:58;25.80;97.80
9913;DHT22;41380;52.548;13.344;2022-08-19T15:27:26;25.60;98.00
9913;DHT22;41380;52.548;13.344;2022-08-19T15:29:54;25.50;98.30
9913;DHT22;41380;52.548;13.344;2022-08-19T15:32:22;25.30;98.80
9913;DHT22;41380;52.548;13.344;2022-08-19T15:34:51;25.20;99.20
9913;DHT22;41380;52.548;13.344;2022-08-19T15:37:18;25.00;99.30
9913;DHT22;41380;52.548;13.344;2022-08-19T15:39:47;25.00;99.70
9913;DHT22;41380;52.548;13.344;2022-08-19T15:42:16;24.80;99.90